Time;durP1;ratioP1;P1;durP2;ratioP2;P2;SDS_P1;SDS_P2;PMS_P1;PMS_P2;Temp;Humidity;BMP_temperature;BMP_pressure;BME280_temperature;BME280_humidity;BME280_pressure;Samples;Min_cycle;Max_cycle;Signal;HPM_P1;HPM_P2
2023/06/02 00:00:49;;;;;;;7.28;6.22;;;;;;;14.03;100.00;95945.66;5112833;28;20015;-68
2023/06/02 00:03:14;;;;;;;8.38;5.30;;;;;;;13.98;100.00;95950.59;5122660;28;20392;-68
2023/06/02 00:05:39;;;;;;;6.10;5.15;;;;;;;13.93;100.00;95953.72;5117331;27;20016;-68
2023/06/02 00:08:06;;;;;;;6.28;5.78;;;;;;;13.93;100.00;95947.59;5127434;27;20023;-68
2023/06/02 00:10:31;;;;;;;6.15;5.63;;;;;;;13.97;100.00;95954.25;5114212;28;20065;-68
2023/06/02 00:12:57;;;;;;;7.07;6.18;;;;;;;14.00;100.00;95956.56;5116526;28;20519;-68
2023/06/02 00:15:22;;;;;;;6.30;5.75;;;;;;;13.98;100.00;95951.41;5120991;28;20581;-68
2023/06/02 00:17:47;;;;;;;6.28;5.78;;;;;;;13.95;100.00;95958.88;5122432;27;20023;-67
2023/06/02 00:20:13;;;;;;;8.40;6.38;;;;;;;13.86;100.00;95957.97;5119088;28;20102;-68
2023/06/02 00:22:38;;;;;;;6.78;6.18;;;;;;;13.85;100.00;95951.84;5114633;28;20022;-68
2023/06/02 00:25:05;;;;;;;6.55;5.95;;;;;;;13.92;100.00;95957.34;5118106;28;20105;-68
2023/06/02 00:27:30;;;;;;;6.50;5.90;;;;;;;13.91;100.00;95955.69;5119877;28;20038;-68
2023/06/02 00:29:55;;;;;;;6.57;5.97;;;;;;;13.90;100.00;95951.38;5119928;27;20095;-68
2023/06/02 00:32:21;;;;;;;6.85;6.20;;;;;;;13.85;100.00;95946.56;5116700;27;20032;-68
2023/06/02 00:34:46;;;;;;;6.28;5.82;;;;;;;13.85;100.00;95951.03;5104013;28;20030;-68
2023/06/02 00:37:12;;;;;;;8.15;5.88;;;;;;;13.81;100.00;95947.84;5117552;27;20072;-68
2023/06/02 00:39:37;;;;;;;7.50;5.85;;;;;;;13.82;100.00;95949.50;5117467;28;20031;-68
2023/06/02 00:42:04;;;;;;;5.85;5.30;;;;;;;13.73;100.00;95951.28;5116427;27;20054;-68
2023/06/02 00:44:30;;;;;;;6.55;5.95;;;;;;;13.80;100.00;95951.50;5125380;27;20373;-68
2023/06/02 00:46:56;;;;;;;7.47;6.53;;;;;;;13.81;100.00;95949.66;5126210;27;20099;-68
2023/06/02 00:49:22;;;;;;;6.25;5.68;;;;;;;13.77;100.00;95953.59;5129113;27;20038;-68
2023/06/02 00:51:48;;;;;;;7.10;6.45;;;;;;;13.70;100.00;95943.66;5126541;27;20015;-68
2023/06/02 00:54:16;;;;;;;6.57;6.07;;;;;;;13.68;100.00;95950.91;5124923;27;20091;-68
2023/06/02 00:56:42;;;;;;;6.75;6.25;;;;;;;13.65;100.00;95945.94;5125268;27;20027;-68
2023/06/02 00:59:08;;;;;;;7.40;6.10;;;;;;;13.58;100.00;95945.72;5119952;27;20471;-68
2023/06/02 01:01:35;;;;;;;6.95;6.45;;;;;;;13.56;100.00;95946.84;5128066;27;20019;-68
2023/06/02 01:04:01;;;;;;;6.45;5.88;;;;;;;13.52;100.00;95950.78;5122505;27;20020;-68
2023/06/02 01:06:34;;;;;;;6.70;6.10;;;;;;;13.49;100.00;95951.09;5118364;27;20023;-69
2023/06/02 01:09:03;;;;;;;6.65;6.03;;;;;;;13.44;100.00;95943.63;5121389;27;20034;-68
2023/06/02 01:11:29;;;;;;;6.20;5.78;;;;;;;13.43;100.00;95945.44;5127294;27;20373;-68
2023/06/02 01:13:55;;;;;;;9.63;6.05;;;;;;;13.34;100.00;95943.69;5124384;27;20092;-68
2023/06/02 01:16:21;;;;;;;5.95;5.30;;;;;;;13.35;100.00;95939.25;5121505;27;20098;-68
2023/06/02 01:18:49;;;;;;;6.03;5.53;;;;;;;13.32;100.00;95927.13;5121281;27;20057;-68
2023/06/02 01:21:21;;;;;;;6.60;5.68;;;;;;;13.30;100.00;95937.03;5119897;27;20105;-68
2023/06/02 01:23:49;;;;;;;6.43;5.78;;;;;;;13.27;100.00;95922.34;5130276;27;20413;-68
2023/06/02 01:26:15;;;;;;;6.53;5.93;;;;;;;13.24;100.00;95922.63;5122600;27;20028;-68
2023/06/02 01:28:40;;;;;;;7.20;5.75;;;;;;;13.21;100.00;95927.41;5121251;27;20024;-68
2023/06/02 01:31:15;;;;;;;10.07;5.82;;;;;;;13.19;100.00;95924.88;5129324;27;20023;-68
2023/06/02 01:33:47;;;;;;;5.60;5.10;;;;;;;13.17;100.00;95918.94;5121277;27;20043;-68
2023/06/02 01:36:15;;;;;;;6.05;5.45;;;;;;;13.15;100.00;95908.53;5119451;27;20114;-68
2023/06/02 01:38:42;;;;;;;6.32;5.88;;;;;;;13.18;100.00;95907.38;5121460;27;20032;-68
2023/06/02 01:41:09;;;;;;;6.15;5.65;;;;;;;13.07;100.00;95915.56;5124424;27;20444;-68
2023/06/02 01:43:36;;;;;;;6.75;6.05;;;;;;;13.01;100.00;95916.97;5120186;27;20500;-68
2023/06/02 01:46:03;;;;;;;7.05;6.15;;;;;;;13.05;100.00;95913.03;5120951;27;20509;-67
2023/06/02 01:48:29;;;;;;;6.32;5.82;;;;;;;13.07;100.00;95911.06;5118690;27;20078;-68
2023/06/02 01:50:54;;;;;;;9.20;5.60;;;;;;;13.09;100.00;95903.81;5117909;27;20019;-68
2023/06/02 01:53:20;;;;;;;8.15;6.10;;;;;;;13.09;100.00;95906.47;5118794;27;20370;-68
2023/06/02 01:55:47;;;;;;;6.57;6.03;;;;;;;13.02;100.00;95908.88;5123316;27;20144;-68
2023/06/02 01:58:13;;;;;;;6.68;6.05;;;;;;;13.03;100.00;95907.91;5124736;27;20031;-68
2023/06/02 02:00:38;;;;;;;6.70;6.07;;;;;;;12.96;100.00;95909.50;5128445;27;20026;-68
2023/06/02 02:03:04;;;;;;;7.13;6.43;;;;;;;12.93;100.00;95906.31;5126488;27;20055;-68
2023/06/02 02:05:30;;;;;;;6.60;6.05;;;;;;;12.92;100.00;95908.16;5122019;27;20523;-68
2023/06/02 02:07:56;;;;;;;6.85;6.25;;;;;;;12.91;100.00;95906.50;5124241;27;20402;-67
2023/06/02 02:10:21;;;;;;;6.72;5.97;;;;;;;12.89;100.00;95909.28;5123407;27;20023;-68
2023/06/02 02:12:47;;;;;;;6.38;5.78;;;;;;;12.88;100.00;95899.69;5124586;27;20594;-68
2023/06/02 02:15:12;;;;;;;6.72;6.10;;;;;;;12.90;100.00;95897.72;5124595;27;20110;-68
2023/06/02 02:17:44;;;;;;;6.63;6.03;;;;;;;12.85;100.00;95905.28;5122385;27;20019;-68
2023/06/02 02:20:14;;;;;;;6.45;5.85;;;;;;;12.75;100.00;95902.69;5123758;27;20011;-68
2023/06/02 02:22:40;;;;;;;7.88;6.07;;;;;;;12.77;100.00;95907.84;5122590;27;20028;-68
2023/06/02 02:25:05;;;;;;;7.00;6.50;;;;;;;12.80;100.00;95902.25;5104966;27;20503;-68
2023/06/02 02:27:31;;;;;;;6.75;6.25;;;;;;;12.78;100.00;95900.75;5116698;27;20026;-68
2023/06/02 02:29:57;;;;;;;7.07;6.38;;;;;;;12.78;100.00;95906.88;5124146;27;20101;-68
2023/06/02 02:32:22;;;;;;;7.43;6.38;;;;;;;12.78;100.00;95904.22;5128106;27;20027;-68
2023/06/02 02:34:48;;;;;;;7.28;6.57;;;;;;;12.81;100.00;95906.56;5118593;27;20015;-68
2023/06/02 02:37:13;;;;;;;7.28;6.60;;;;;;;12.81;100.00;95903.06;5121280;27;20023;-68
2023/06/02 02:39:39;;;;;;;8.05;6.30;;;;;;;12.82;100.00;95899.44;5119446;27;20027;-68
2023/06/02 02:42:05;;;;;;;6.60;6.10;;;;;;;12.80;100.00;95899.63;5124095;27;20053;-67
2023/06/02 02:44:30;;;;;;;7.75;6.45;;;;;;;12.77;100.00;95907.00;5118336;27;20106;-68
2023/06/02 02:46:58;;;;;;;7.18;6.30;;;;;;;12.75;100.00;95904.53;5118072;27;20050;-68
2023/06/02 02:49:23;;;;;;;7.03;5.80;;;;;;;12.69;100.00;95905.09;5116525;27;20353;-67
2023/06/02 02:51:49;;;;;;;9.35;5.53;;;;;;;12.65;100.00;95911.69;5120270;27;20020;-67
2023/06/02 02:54:14;;;;;;;6.18;5.68;;;;;;;12.57;100.00;95907.13;5118365;27;20012;-68
2023/06/02 02:56:40;;;;;;;7.57;6.28;;;;;;;12.53;100.00;95898.69;5120297;27;20058;-67
2023/06/02 02:59:05;;;;;;;7.22;6.22;;;;;;;12.46;100.00;95897.63;5123890;27;20019;-67
2023/06/02 03:01:32;;;;;;;6.78;6.18;;;;;;;12.45;100.00;95898.59;5122714;27;20023;-68
2023/06/02 03:03:58;;;;;;;8.27;7.10;;;;;;;12.46;100.00;95889.69;5118399;27;20189;-68
2023/06/02 03:06:31;;;;;;;6.90;6.30;;;;;;;12.37;100.00;95887.94;5117835;27;20020;-68
2023/06/02 03:09:00;;;;;;;7.25;6.60;;;;;;;12.37;100.00;95891.41;5122951;27;20022;-68
2023/06/02 03:11:25;;;;;;;7.22;6.03;;;;;;;12.42;100.00;95897.09;5117381;27;20024;-68
2023/06/02 03:13:51;;;;;;;7.90;6.40;;;;;;;12.42;100.00;95890.97;5118989;27;20510;-68
2023/06/02 03:16:17;;;;;;;8.82;6.72;;;;;;;12.37;100.00;95901.97;5124080;27;20024;-68
2023/06/02 03:18:42;;;;;;;6.90;5.88;;;;;;;12.34;100.00;95899.63;5120017;27;20020;-68
2023/06/02 03:21:08;;;;;;;7.57;6.68;;;;;;;12.30;100.00;95903.53;5117229;27;20071;-67
2023/06/02 03:23:33;;;;;;;7.25;6.60;;;;;;;12.19;100.00;95901.94;5122663;27;20027;-67
2023/06/02 03:26:02;;;;;;;8.27;6.50;;;;;;;12.12;100.00;95900.88;5116576;27;20035;-67
2023/06/02 03:28:28;;;;;;;7.63;6.85;;;;;;;12.07;100.00;95897.84;5117626;27;20035;-68
2023/06/02 03:30:54;;;;;;;6.88;6.28;;;;;;;12.06;100.00;95902.28;5124750;27;20019;-68
2023/06/02 03:33:19;;;;;;;8.88;6.78;;;;;;;12.06;100.00;95912.84;5124059;27;20019;-68
2023/06/02 03:35:45;;;;;;;8.73;6.80;;;;;;;12.11;100.00;95915.03;5124568;27;20029;-68
2023/06/02 03:38:11;;;;;;;7.50;6.80;;;;;;;12.13;100.00;95910.44;5114851;27;20109;-68
2023/06/02 03:40:36;;;;;;;6.78;6.18;;;;;;;12.11;100.00;95902.66;5121626;28;20025;-67
2023/06/02 03:43:02;;;;;;;9.68;6.60;;;;;;;12.13;100.00;95900.72;5116855;28;20080;-68
2023/06/02 03:45:27;;;;;;;6.70;6.20;;;;;;;12.16;100.00;95899.59;5122894;27;20113;-68
2023/06/02 03:47:53;;;;;;;8.35;6.63;;;;;;;12.17;100.00;95904.75;5126619;27;20035;-68
2023/06/02 03:50:18;;;;;;;7.30;6.40;;;;;;;12.18;100.00;95902.91;5119769;28;20045;-68
2023/06/02 03:52:44;;;;;;;6.95;6.45;;;;;;;12.16;100.00;95904.88;5114716;28;20059;-68
2023/06/02 03:55:09;;;;;;;7.50;6.93;;;;;;;12.11;100.00;95899.22;5119085;28;20098;-68
2023/06/02 03:57:35;;;;;;;8.65;6.68;;;;;;;12.11;100.00;95894.75;5114179;28;20045;-68
2023/06/02 04:00:00;;;;;;;8.30;6.35;;;;;;;12.12;100.00;95895.59;5120804;27;20023;-68
2023/06/02 04:02:26;;;;;;;7.80;6.80;;;;;;;12.11;100.00;95904.50;5124382;27;20019;-68
2023/06/02 04:04:52;;;;;;;9.50;6.75;;;;;;;12.05;100.00;95908.53;5123589;28;20098;-69
2023/06/02 04:07:17;;;;;;;7.47;6.78;;;;;;;12.03;100.00;95907.84;5127688;27;20020;-68
2023/06/02 04:09:42;;;;;;;9.70;6.53;;;;;;;12.00;100.00;95922.13;5121212;28;20039;-68
2023/06/02 04:12:08;;;;;;;10.80;9.73;;;;;;;12.04;100.00;95915.59;5114553;27;20453;-67
2023/06/02 04:14:34;;;;;;;11.90;10.40;;;;;;;12.10;100.00;95918.66;5115943;28;20028;-68
2023/06/02 04:16:59;;;;;;;11.02;10.02;;;;;;;12.13;100.00;95923.66;5115593;28;20024;-68
2023/06/02 04:19:25;;;;;;;9.00;8.10;;;;;;;12.14;100.00;95920.03;5118870;27;20510;-67
2023/06/02 04:21:52;;;;;;;8.20;7.25;;;;;;;12.12;100.00;95921.97;5119868;27;20023;-67
2023/06/02 04:24:17;;;;;;;8.93;7.57;;;;;;;12.15;100.00;95919.06;5121813;27;20050;-69
2023/06/02 04:26:43;;;;;;;9.50;8.05;;;;;;;12.17;100.00;95919.72;5121521;27;20015;-68
2023/06/02 04:29:08;;;;;;;7.63;6.95;;;;;;;12.20;100.00;95923.91;5125348;27;20026;-68
2023/06/02 04:31:45;;;;;;;10.13;7.85;;;;;;;12.21;100.00;95918.47;5100059;27;21330;-69
2023/06/02 04:34:12;;;;;;;7.35;6.80;;;;;;;12.25;100.00;95932.19;5132815;27;20557;-68
2023/06/02 04:36:38;;;;;;;7.10;6.47;;;;;;;12.27;100.00;95925.81;5123050;27;20115;-69
2023/06/02 04:39:06;;;;;;;8.13;7.32;;;;;;;12.26;100.00;95932.03;5127200;27;20111;-68
2023/06/02 04:41:31;;;;;;;8.23;7.43;;;;;;;12.28;100.00;95930.13;5124509;27;20027;-68
2023/06/02 04:43:58;;;;;;;10.82;9.85;;;;;;;12.37;100.00;95932.84;5120393;27;20542;-68
2023/06/02 04:46:25;;;;;;;11.10;10.10;;;;;;;12.37;100.00;95924.91;5127365;27;20484;-68
2023/06/02 04:48:50;;;;;;;9.50;8.60;;;;;;;12.37;100.00;95930.19;5131670;27;20051;-67
2023/06/02 04:51:16;;;;;;;10.07;9.13;;;;;;;12.41;100.00;95926.28;5130539;27;20020;-67
2023/06/02 04:53:41;;;;;;;9.27;7.72;;;;;;;12.41;100.00;95924.47;5117315;28;20094;-68
2023/06/02 04:56:07;;;;;;;8.50;7.80;;;;;;;12.43;100.00;95924.31;5129017;27;20819;-68
2023/06/02 04:58:33;;;;;;;8.65;7.85;;;;;;;12.49;100.00;95921.09;5120046;27;20019;-69
2023/06/02 05:01:00;;;;;;;7.97;7.38;;;;;;;12.51;100.00;95921.78;5123532;27;20043;-68
2023/06/02 05:03:25;;;;;;;9.10;7.20;;;;;;;12.56;100.00;95922.16;5125252;27;20480;-67
2023/06/02 05:05:51;;;;;;;8.30;7.60;;;;;;;12.64;100.00;95920.56;5120464;27;20016;-67
2023/06/02 05:08:16;;;;;;;7.57;6.93;;;;;;;12.72;100.00;95918.03;5128029;27;20519;-68
2023/06/02 05:10:42;;;;;;;7.70;7.00;;;;;;;12.82;100.00;95918.78;5122319;27;20019;-68
2023/06/02 05:13:07;;;;;;;7.53;6.82;;;;;;;12.95;100.00;95922.88;5125472;27;20030;-68
2023/06/02 05:15:32;;;;;;;7.82;7.20;;;;;;;13.06;100.00;95924.47;5129332;27;20023;-68
2023/06/02 05:17:58;;;;;;;8.63;7.72;;;;;;;13.17;100.00;95926.84;5123808;27;20023;-68
2023/06/02 05:20:23;;;;;;;8.85;8.25;;;;;;;13.26;100.00;95922.47;5120312;27;20028;-68
2023/06/02 05:22:49;;;;;;;15.57;9.40;;;;;;;13.37;100.00;95922.22;5119773;27;20035;-68
2023/06/02 05:25:14;;;;;;;11.80;10.20;;;;;;;13.45;100.00;95924.13;5118434;27;20106;-67
2023/06/02 05:27:39;;;;;;;11.95;10.25;;;;;;;13.56;100.00;95925.69;5121083;27;20019;-70
2023/06/02 05:30:06;;;;;;;10.90;9.65;;;;;;;13.69;100.00;95927.91;5118113;27;20083;-67
2023/06/02 05:32:32;;;;;;;9.38;8.38;;;;;;;13.81;100.00;95923.19;5129614;27;20031;-68
2023/06/02 05:34:57;;;;;;;14.68;9.60;;;;;;;13.97;100.00;95922.47;5119761;27;20392;-67
2023/06/02 05:37:22;;;;;;;8.80;7.82;;;;;;;14.10;100.00;95914.09;5133378;27;20512;-67
2023/06/02 05:39:48;;;;;;;8.95;7.47;;;;;;;14.04;100.00;95910.25;5125813;27;20030;-67
2023/06/02 05:42:14;;;;;;;8.35;7.55;;;;;;;14.16;100.00;95909.00;5120926;27;20031;-67
2023/06/02 05:44:40;;;;;;;9.15;8.25;;;;;;;14.29;100.00;95910.38;5128909;27;20027;-67
2023/06/02 05:47:05;;;;;;;13.48;7.93;;;;;;;14.27;100.00;95907.91;5122543;27;20050;-67
2023/06/02 05:49:31;;;;;;;9.10;8.00;;;;;;;14.30;100.00;95907.56;5120487;27;20038;-67
2023/06/02 05:51:56;;;;;;;8.85;8.05;;;;;;;14.37;100.00;95906.91;5133387;27;20034;-67
2023/06/02 05:54:21;;;;;;;10.35;8.10;;;;;;;14.51;100.00;95905.47;5115533;27;20031;-67
2023/06/02 05:56:47;;;;;;;8.98;8.15;;;;;;;14.57;100.00;95903.00;5120293;27;20024;-66
2023/06/02 05:59:13;;;;;;;11.57;9.38;;;;;;;14.67;100.00;95902.88;5122219;27;20072;-67
2023/06/02 06:01:38;;;;;;;10.57;9.25;;;;;;;14.68;100.00;95887.78;5123617;27;20365;-68
2023/06/02 06:04:03;;;;;;;12.45;7.88;;;;;;;14.75;100.00;95894.97;5117892;27;20051;-68
2023/06/02 06:06:29;;;;;;;8.75;7.97;;;;;;;14.81;100.00;95893.47;5118817;27;20047;-69
2023/06/02 06:08:54;;;;;;;7.90;7.22;;;;;;;14.97;100.00;95894.50;5131453;27;20023;-73
2023/06/02 06:11:21;;;;;;;7.55;6.95;;;;;;;15.16;100.00;95891.53;5120850;27;20028;-70
2023/06/02 06:13:47;;;;;;;7.93;6.82;;;;;;;15.34;100.00;95890.50;5124056;27;20055;-71
2023/06/02 06:16:12;;;;;;;7.07;6.47;;;;;;;15.41;100.00;95888.88;5132888;27;20556;-69
2023/06/02 06:18:38;;;;;;;8.65;7.15;;;;;;;15.55;100.00;95887.34;5127264;27;20117;-71
2023/06/02 06:21:03;;;;;;;6.53;6.03;;;;;;;15.68;100.00;95886.81;5114899;27;20054;-70
2023/06/02 06:23:28;;;;;;;6.50;6.00;;;;;;;15.78;100.00;95888.44;5115410;27;20196;-70
2023/06/02 06:25:54;;;;;;;7.43;6.80;;;;;;;15.85;100.00;95874.34;5116390;27;20028;-68
2023/06/02 06:28:20;;;;;;;9.73;6.60;;;;;;;16.08;100.00;95880.78;5123056;27;20023;-68
2023/06/02 06:30:46;;;;;;;7.15;6.57;;;;;;;16.26;100.00;95875.22;5132524;27;20056;-68
2023/06/02 06:33:11;;;;;;;8.02;5.80;;;;;;;16.43;100.00;95870.63;5128603;27;20023;-68
2023/06/02 06:35:37;;;;;;;6.63;5.97;;;;;;;16.66;100.00;95864.53;5116287;27;20030;-68
2023/06/02 06:38:03;;;;;;;5.78;5.28;;;;;;;17.03;100.00;95861.16;5135708;27;20372;-68
2023/06/02 06:40:29;;;;;;;5.88;5.43;;;;;;;17.39;100.00;95867.69;5120066;27;20067;-68
2023/06/02 06:42:54;;;;;;;6.88;5.38;;;;;;;17.64;100.00;95855.94;5121305;27;20051;-68
2023/06/02 06:45:20;;;;;;;5.75;5.25;;;;;;;17.83;100.00;95843.94;5135743;27;20466;-68
2023/06/02 06:47:46;;;;;;;6.55;5.75;;;;;;;18.22;100.00;95848.16;5130523;27;20130;-68
2023/06/02 06:50:13;;;;;;;8.32;6.07;;;;;;;18.61;100.00;95859.47;5126577;27;20480;-68
2023/06/02 06:52:38;;;;;;;7.18;6.55;;;;;;;18.98;100.00;95868.28;5117233;27;20043;-68
2023/06/02 06:55:05;;;;;;;8.45;7.57;;;;;;;19.22;100.00;95868.09;5126056;27;20031;-68
2023/06/02 06:57:31;;;;;;;18.15;16.38;;;;;;;19.53;100.00;95857.06;5121965;27;20034;-67
2023/06/02 06:59:57;;;;;;;14.85;13.35;;;;;;;19.82;100.00;95860.53;5124131;27;20102;-69
2023/06/02 07:02:22;;;;;;;9.38;8.48;;;;;;;19.87;100.00;95865.28;5117881;27;20062;-67
2023/06/02 07:04:48;;;;;;;7.03;5.40;;;;;;;20.02;100.00;95868.69;5127175;27;20075;-68
2023/06/02 07:07:14;;;;;;;5.88;5.25;;;;;;;20.16;100.00;95863.41;5120600;27;20410;-67
2023/06/02 07:09:39;;;;;;;7.40;5.32;;;;;;;20.25;100.00;95856.88;5115979;27;20054;-67
2023/06/02 07:12:05;;;;;;;6.57;5.93;;;;;;;20.31;100.00;95850.72;5115295;27;20027;-67
2023/06/02 07:14:30;;;;;;;6.13;5.63;;;;;;;20.50;100.00;95845.66;5117289;27;20028;-67
2023/06/02 07:16:56;;;;;;;5.35;4.78;;;;;;;20.55;100.00;95848.56;5127240;27;20027;-67
2023/06/02 07:19:21;;;;;;;6.30;5.05;;;;;;;20.79;100.00;95849.03;5125141;27;20033;-68
2023/06/02 07:21:47;;;;;;;4.50;4.18;;;;;;;20.59;100.00;95857.81;5119618;27;20088;-68
2023/06/02 07:24:13;;;;;;;7.95;5.20;;;;;;;20.60;100.00;95856.78;5114548;28;20466;-67
2023/06/02 07:26:38;;;;;;;5.90;5.30;;;;;;;21.14;100.00;95867.63;5123660;27;20015;-67
2023/06/02 07:29:04;;;;;;;5.90;5.30;;;;;;;21.57;100.00;95862.91;5107856;28;20076;-67
2023/06/02 07:31:29;;;;;;;6.55;4.97;;;;;;;21.95;100.00;95845.34;5120439;27;20031;-67
2023/06/02 07:33:56;;;;;;;5.85;5.07;;;;;;;22.00;100.00;95848.22;5101769;28;20051;-68
2023/06/02 07:36:22;;;;;;;6.60;5.18;;;;;;;22.06;100.00;95846.56;5127220;27;20039;-68
2023/06/02 07:38:48;;;;;;;6.70;5.05;;;;;;;22.26;100.00;95849.16;5120308;27;20034;-67
2023/06/02 07:41:13;;;;;;;5.13;4.75;;;;;;;22.54;100.00;95831.94;5115710;28;20061;-67
2023/06/02 07:43:39;;;;;;;6.43;5.38;;;;;;;22.24;100.00;95836.00;5132855;27;20063;-67
2023/06/02 07:46:04;;;;;;;5.32;4.88;;;;;;;22.28;100.00;95837.22;5116163;27;20043;-68
2023/06/02 07:48:30;;;;;;;5.15;4.65;;;;;;;22.23;100.00;95828.16;5118572;28;20102;-67
2023/06/02 07:50:55;;;;;;;6.15;4.88;;;;;;;21.74;100.00;95831.97;5123609;28;20051;-67
2023/06/02 07:53:20;;;;;;;4.72;4.40;;;;;;;21.59;100.00;95823.34;5114713;28;20031;-67
2023/06/02 07:55:46;;;;;;;5.93;5.35;;;;;;;21.93;100.00;95840.19;5119230;27;20044;-67
2023/06/02 07:58:11;;;;;;;7.40;4.65;;;;;;;22.53;100.00;95844.56;5128192;27;20023;-68
2023/06/02 08:00:38;;;;;;;4.93;4.43;;;;;;;22.38;100.00;95825.19;5118596;27;20031;-67
2023/06/02 08:03:04;;;;;;;6.65;4.97;;;;;;;22.74;100.00;95823.81;5125439;27;20032;-67
2023/06/02 08:05:29;;;;;;;6.57;5.25;;;;;;;22.54;100.00;95827.41;5135665;27;20421;-68
2023/06/02 08:07:54;;;;;;;5.68;4.40;;;;;;;22.00;100.00;95813.38;5141826;27;20046;-66
2023/06/02 08:10:20;;;;;;;7.78;4.28;;;;;;;22.56;100.00;95827.22;5136263;27;20147;-67
2023/06/02 08:12:45;;;;;;;7.25;5.05;;;;;;;22.10;100.00;95811.06;5126059;27;20031;-67
2023/06/02 08:15:11;;;;;;;5.88;4.88;;;;;;;21.85;100.00;95832.41;5130441;27;20042;-67
2023/06/02 08:17:36;;;;;;;9.50;4.60;;;;;;;22.52;100.00;95824.13;5127929;27;20084;-68
2023/06/02 08:20:03;;;;;;;4.72;4.38;;;;;;;22.41;100.00;95824.75;5125050;27;20027;-67
2023/06/02 08:22:33;;;;;;;4.80;4.40;;;;;;;22.68;100.00;95811.25;5116173;27;20066;-67
2023/06/02 08:24:59;;;;;;;6.68;4.60;;;;;;;22.54;100.00;95832.78;5118192;27;20027;-66
2023/06/02 08:27:24;;;;;;;4.88;4.47;;;;;;;22.64;100.00;95813.53;5121627;27;20023;-66
2023/06/02 08:29:51;;;;;;;4.82;4.03;;;;;;;22.79;100.00;95797.13;5129197;27;20118;-68
2023/06/02 08:32:22;;;;;;;5.40;3.95;;;;;;;23.23;100.00;95789.19;5126642;27;20101;-67
2023/06/02 08:34:50;;;;;;;4.65;4.35;;;;;;;22.82;100.00;95791.34;5115846;27;20077;-67
2023/06/02 08:37:20;;;;;;;4.63;4.22;;;;;;;22.74;100.00;95792.41;5127622;27;20027;-67
2023/06/02 08:39:47;;;;;;;5.10;4.40;;;;;;;22.64;100.00;95781.34;5121558;27;20145;-67
2023/06/02 08:42:13;;;;;;;5.20;4.70;;;;;;;23.03;100.00;95779.41;5131251;27;20072;-66
2023/06/02 08:44:43;;;;;;;4.90;4.50;;;;;;;22.99;100.00;95780.06;5119532;27;20031;-66
2023/06/02 08:47:11;;;;;;;5.00;4.40;;;;;;;22.98;100.00;95768.50;5129183;27;20043;-66
2023/06/02 08:49:40;;;;;;;4.75;4.35;;;;;;;23.02;100.00;95783.16;5119739;28;20102;-67
2023/06/02 08:52:10;;;;;;;6.05;4.85;;;;;;;23.41;100.00;95785.72;5119298;28;20527;-66
2023/06/02 08:54:36;;;;;;;4.70;4.30;;;;;;;23.40;100.00;95745.66;5129400;28;20130;-66
2023/06/02 08:57:04;;;;;;;4.88;4.30;;;;;;;23.28;100.00;95753.63;5126094;28;20059;-68
2023/06/02 08:59:30;;;;;;;6.13;4.40;;;;;;;23.75;100.00;95745.09;5129350;27;20043;-67
2023/06/02 09:01:55;;;;;;;5.05;4.50;;;;;;;23.98;100.00;95746.28;5120606;27;20035;-67
2023/06/02 09:04:21;;;;;;;5.00;4.57;;;;;;;24.01;100.00;95741.31;5115353;28;20035;-66
2023/06/02 09:06:49;;;;;;;4.75;4.32;;;;;;;23.81;100.00;95760.31;5135532;27;20023;-67
2023/06/02 09:09:15;;;;;;;4.82;4.43;;;;;;;23.87;100.00;95770.19;5124454;28;20023;-67
2023/06/02 09:11:57;;;;;;;4.45;4.15;;;;;;;23.75;100.00;95759.31;5131437;28;20023;-67
2023/06/02 09:14:22;;;;;;;4.35;4.03;;;;;;;23.92;100.00;95760.63;5127123;28;20608;-66
2023/06/02 09:16:47;;;;;;;4.35;4.00;;;;;;;24.20;100.00;95752.00;5122286;28;20111;-67
2023/06/02 09:19:13;;;;;;;4.75;4.38;;;;;;;24.52;100.00;95726.75;5120271;28;20038;-66
2023/06/02 09:21:39;;;;;;;4.82;4.40;;;;;;;25.15;100.00;95728.06;5114787;28;20031;-67
2023/06/02 09:24:05;;;;;;;4.90;4.50;;;;;;;24.45;100.00;95713.41;5126354;28;20042;-67
2023/06/02 09:26:31;;;;;;;6.13;4.30;;;;;;;24.69;100.00;95733.09;5128700;27;20026;-67
2023/06/02 09:29:10;;;;;;;4.60;4.20;;;;;;;24.55;100.00;95731.69;5129528;28;20030;-67
2023/06/02 09:31:54;;;;;;;4.70;4.30;;;;;;;24.67;100.00;95726.34;5114534;28;20407;-67
2023/06/02 09:34:33;;;;;;;5.68;4.03;;;;;;;24.78;100.00;95728.25;5125289;28;20485;-66
2023/06/02 09:37:13;;;;;;;7.18;3.92;;;;;;;24.36;100.00;95745.19;5124652;27;20471;-66
2023/06/02 09:39:48;;;;;;;4.95;4.35;;;;;;;24.90;100.00;95736.34;5122298;28;20036;-67
2023/06/02 09:42:15;;;;;;;5.32;4.13;;;;;;;25.56;100.00;95706.63;5114722;28;20023;-67
2023/06/02 09:45:00;;;;;;;4.68;4.28;;;;;;;24.73;100.00;95715.44;5126713;27;20114;-67
2023/06/02 09:47:26;;;;;;;7.18;4.05;;;;;;;25.48;100.00;95716.94;5076937;27;1385584;-67
2023/06/02 09:49:52;;;;;;;4.40;4.00;;;;;;;25.62;100.00;95707.56;5128705;27;20032;-66
2023/06/02 09:52:18;;;;;;;4.60;4.28;;;;;;;25.98;100.00;95697.50;5118973;27;20114;-67
2023/06/02 09:54:45;;;;;;;4.30;4.00;;;;;;;25.87;100.00;95709.13;5127027;27;20108;-66
2023/06/02 09:57:11;;;;;;;4.63;4.15;;;;;;;25.46;100.00;95722.56;5116495;27;20042;-67
2023/06/02 09:59:41;;;;;;;4.40;4.00;;;;;;;25.87;100.00;95706.44;5114490;27;20023;-67
2023/06/02 10:02:08;;;;;;;4.22;3.88;;;;;;;25.58;100.00;95693.72;5125960;27;20023;-66
2023/06/02 10:04:34;;;;;;;4.93;4.43;;;;;;;25.41;100.00;95696.31;5127193;27;20022;-67
2023/06/02 10:07:18;;;;;;;4.15;3.75;;;;;;;25.44;100.00;95732.75;5121422;27;20019;-67
2023/06/02 10:10:05;;;;;;;4.75;4.25;;;;;;;26.21;100.00;95700.38;5126353;27;20027;-66
2023/06/02 10:12:58;;;;;;;3.92;3.63;;;;;;;26.16;100.00;95706.44;5124141;27;20452;-67
2023/06/02 10:15:26;;;;;;;4.40;4.10;;;;;;;25.55;100.00;95685.31;5115512;27;20027;-67
2023/06/02 10:18:10;;;;;;;4.43;3.70;;;;;;;25.79;100.00;95696.84;5124824;27;20117;-67
2023/06/02 10:21:05;;;;;;;4.13;3.83;;;;;;;25.79;100.00;95683.38;5125499;27;20475;-67
2023/06/02 10:23:44;;;;;;;4.05;3.75;;;;;;;25.93;100.00;95683.91;5127887;27;20031;-63
2023/06/02 10:26:36;;;;;;;5.65;4.00;;;;;;;26.18;100.00;95688.16;5124225;27;20027;-63
2023/06/02 10:29:04;;;;;;;4.45;4.15;;;;;;;26.76;100.00;95669.19;5124968;27;20070;-63
2023/06/02 10:31:33;;;;;;;4.70;4.25;;;;;;;26.36;100.00;95660.19;5117479;27;20047;-63
2023/06/02 10:34:00;;;;;;;4.50;4.13;;;;;;;25.76;100.00;95688.44;5121214;27;20102;-62
2023/06/02 10:36:49;;;;;;;4.72;3.60;;;;;;;26.07;100.00;95659.34;5117243;27;20062;-63
2023/06/02 10:39:43;;;;;;;4.20;3.83;;;;;;;26.63;100.00;95670.34;5095706;27;20039;-63
2023/06/02 10:42:09;;;;;;;4.72;4.43;;;;;;;27.00;100.00;95652.84;5117343;27;20067;-63
2023/06/02 10:44:35;;;;;;;6.45;4.20;;;;;;;27.93;100.00;95615.38;5121977;27;20031;-63
2023/06/02 10:47:18;;;;;;;5.50;4.30;;;;;;;26.23;100.00;95634.34;5128061;27;20047;-63
2023/06/02 10:49:50;;;;;;;5.90;4.30;;;;;;;27.33;100.00;95640.34;5121963;27;20050;-63
2023/06/02 10:52:16;;;;;;;4.80;4.30;;;;;;;26.48;100.00;95651.19;5121965;27;20106;-62
2023/06/02 10:54:41;;;;;;;6.07;4.45;;;;;;;26.39;100.00;95648.91;5120704;27;20058;-62
2023/06/02 10:57:07;;;;;;;4.75;4.35;;;;;;;26.62;100.00;95649.81;5122338;27;20391;-63
2023/06/02 10:59:35;;;;;;;6.95;4.57;;;;;;;27.84;100.00;95625.84;5114623;27;20024;-63
2023/06/02 11:02:02;;;;;;;7.22;5.57;;;;;;;27.36;100.00;95633.59;5122410;27;20023;-63
2023/06/02 11:04:35;;;;;;;5.13;4.68;;;;;;;27.22;100.00;95612.38;5122860;27;20031;-67
2023/06/02 11:07:09;;;;;;;4.93;4.53;;;;;;;27.27;100.00;95625.13;5126455;27;20078;-66
2023/06/02 11:09:35;;;;;;;;;;;;;;;27.79;100.00;95604.94;5127740;27;20137;-66
2023/06/02 11:12:01;;;;;;;6.78;4.10;;;;;;;28.37;100.00;95588.22;5114165;27;19954;-66
2023/06/02 11:14:26;;;;;;;4.47;4.05;;;;;;;27.86;100.00;95593.94;5117439;27;20076;-66
2023/06/02 11:17:29;;;;;;;4.28;3.97;;;;;;;27.90;100.00;95600.47;5119269;27;20114;-66
2023/06/02 11:19:55;;;;;;;4.15;3.85;;;;;;;28.90;100.00;95573.19;5116733;27;20038;-66
2023/06/02 11:22:21;;;;;;;4.53;4.13;;;;;;;27.79;100.00;95598.75;5120994;27;20395;-67
2023/06/02 11:24:48;;;;;;;4.88;4.13;;;;;;;27.86;100.00;95586.66;5122717;27;20043;-66